CheckWX is a tool to help pilots better visualize weather data.  It is not intended as a substitute for an official pre-flight weather briefing.

02:26:50 UTC

KCVS METAR
Cannon AFB Airport
Clovis, New Mexico, USA
Current

29 mins ago

KCVS 130158Z AUTO 27009KT 10SM CLR 09/M06 A3002 RMK AO2 SLP161 T00901064 $
Observed
Dec-13 @ 01:58 UTC
Wind
  • 270° at 9 KTS
Visibility
10 SM
Flight Rules
VFR
Cloud Levels
  • Clear skies
Temperature
C / 48°F
Dewpoint
-6°C / 21°F
Humidity
34%
Altimeter
30.02" Hg
Pressure
1016.62 hPa
Previous

1 hour ago

KCVS 130058Z AUTO 00000KT 10SM CLR 08/M06 A3002 RMK AO2 SLP161 T00791059 $
Observed
Dec-13 @ 00:58 UTC
Visibility
10 SM
Flight Rules
VFR
Cloud Levels
  • Clear skies
Temperature
C / 46°F
Dewpoint
-6°C / 21°F
Humidity
37%
Altimeter
30.02" Hg
Pressure
1016.62 hPa
Previous

2 hours ago

KCVS 122358Z AUTO 00000KT 10SM CLR 10/M05 A3000 RMK AO2 SLP150 T01001048 10143 20100 55010 $
Observed
Dec-12 @ 23:58 UTC
Visibility
10 SM
Flight Rules
VFR
Cloud Levels
  • Clear skies
Temperature
10°C / 50°F
Dewpoint
-5°C / 23°F
Humidity
35%
Altimeter
30" Hg
Pressure
1015.92 hPa